sensor_id;sensor_type;location;lat;lon;timestamp;noise_LAeq;noise_LA_min;noise_LA_max;noise_LA01;noise_LA95
67300;Laerm;57658;51.436;5.980;2023-06-26T00:00:08;53.24;32.22;66.19;;
67300;Laerm;57658;51.436;5.980;2023-06-26T00:00:19;33.36;31.44;35.00;;
67300;Laerm;57658;51.436;5.980;2023-06-26T00:00:30;33.49;32.01;34.94;;
67300;Laerm;57658;51.436;5.980;2023-06-26T00:00:40;33.69;32.41;34.98;;
67300;Laerm;57658;51.436;5.980;2023-06-26T00:00:50;33.35;32.40;34.53;;
67300;Laerm;57658;51.436;5.980;2023-06-26T00:01:00;33.39;32.08;34.43;;
67300;Laerm;57658;51.436;5.980;2023-06-26T00:01:11;33.30;32.00;34.60;;
67300;Laerm;57658;51.436;5.980;2023-06-26T00:01:21;33.12;31.55;34.56;;
67300;Laerm;57658;51.436;5.980;2023-06-26T00:01:32;33.52;32.21;37.76;;
67300;Laerm;57658;51.436;5.980;2023-06-26T00:01:42;33.85;32.22;35.19;;
67300;Laerm;57658;51.436;5.980;2023-06-26T00:01:52;33.75;32.36;35.11;;
67300;Laerm;57658;51.436;5.980;2023-06-26T00:02:03;33.98;32.71;35.29;;
67300;Laerm;57658;51.436;5.980;2023-06-26T00:02:13;34.08;32.63;35.49;;
67300;Laerm;57658;51.436;5.980;2023-06-26T00:02:24;33.88;32.37;36.18;;
67300;Laerm;57658;51.436;5.980;2023-06-26T00:02:34;33.92;32.28;35.46;;
67300;Laerm;57658;51.436;5.980;2023-06-26T00:02:44;35.82;32.96;41.48;;
67300;Laerm;57658;51.436;5.980;2023-06-26T00:02:54;45.28;38.82;51.39;;
67300;Laerm;57658;51.436;5.980;2023-06-26T00:03:05;63.08;49.16;77.49;;
67300;Laerm;57658;51.436;5.980;2023-06-26T00:03:15;45.90;39.89;52.32;;
67300;Laerm;57658;51.436;5.980;2023-06-26T00:03:25;39.68;37.23;43.06;;
67300;Laerm;57658;51.436;5.980;2023-06-26T00:03:36;36.46;33.71;40.02;;
67300;Laerm;57658;51.436;5.980;2023-06-26T00:03:46;35.15;33.13;36.73;;
67300;Laerm;57658;51.436;5.980;2023-06-26T00:03:57;33.95;32.65;35.86;;
67300;Laerm;57658;51.436;5.980;2023-06-26T00:04:07;33.85;32.43;35.55;;
67300;Laerm;57658;51.436;5.980;2023-06-26T00:04:18;33.58;31.78;35.36;;
67300;Laerm;57658;51.436;5.980;2023-06-26T00:04:28;33.30;31.94;34.63;;
67300;Laerm;57658;51.436;5.980;2023-06-26T00:04:38;33.59;32.46;34.85;;
67300;Laerm;57658;51.436;5.980;2023-06-26T00:04:49;33.88;32.33;35.04;;
67300;Laerm;57658;51.436;5.980;2023-06-26T00:05:04;33.54;31.66;35.20;;
67300;Laerm;57658;51.436;5.980;2023-06-26T00:05:14;33.46;31.89;34.82;;
67300;Laerm;57658;51.436;5.980;2023-06-26T00:05:24;33.41;32.00;34.75;;
67300;Laerm;57658;51.436;5.980;2023-06-26T00:05:35;33.55;32.08;35.02;;
67300;Laerm;57658;51.436;5.980;2023-06-26T00:05:45;33.49;32.17;35.13;;
67300;Laerm;57658;51.436;5.980;2023-06-26T00:05:55;33.55;32.25;35.17;;
67300;Laerm;57658;51.436;5.980;2023-06-26T00:06:10;33.56;32.14;34.86;;
67300;Laerm;57658;51.436;5.980;2023-06-26T00:06:20;33.43;32.11;34.72;;
67300;Laerm;57658;51.436;5.980;2023-06-26T00:06:30;33.45;31.86;35.08;;
67300;Laerm;57658;51.436;5.980;2023-06-26T00:06:41;33.68;32.32;35.33;;
67300;Laerm;57658;51.436;5.980;2023-06-26T00:06:51;33.61;32.19;35.16;;
67300;Laerm;57658;51.436;5.980;2023-06-26T00:07:02;33.36;32.06;35.26;;
67300;Laerm;57658;51.436;5.980;2023-06-26T00:07:12;33.62;31.92;35.28;;
67300;Laerm;57658;51.436;5.980;2023-06-26T00:07:22;33.57;32.42;35.12;;
67300;Laerm;57658;51.436;5.980;2023-06-26T00:07:32;33.52;32.17;36.20;;
67300;Laerm;57658;51.436;5.980;2023-06-26T00:07:46;33.63;31.54;35.10;;
67300;Laerm;57658;51.436;5.980;2023-06-26T00:07:56;33.53;32.29;35.15;;
67300;Laerm;57658;51.436;5.980;2023-06-26T00:08:10;32.98;31.80;34.52;;
67300;Laerm;57658;51.436;5.980;2023-06-26T00:08:20;33.87;32.01;35.95;;
67300;Laerm;57658;51.436;5.980;2023-06-26T00:08:30;33.87;32.04;42.61;;
67300;Laerm;57658;51.436;5.980;2023-06-26T00:08:41;33.66;32.35;35.49;;
67300;Laerm;57658;51.436;5.980;2023-06-26T00:08:52;34.52;32.70;36.07;;
67300;Laerm;57658;51.436;5.980;2023-06-26T00:09:03;34.06;32.22;36.20;;
67300;Laerm;57658;51.436;5.980;2023-06-26T00:09:13;33.07;31.66;34.42;;
67300;Laerm;57658;51.436;5.980;2023-06-26T00:09:23;33.08;31.72;34.72;;
67300;Laerm;57658;51.436;5.980;2023-06-26T00:09:33;33.08;31.52;35.70;;
67300;Laerm;57658;51.436;5.980;2023-06-26T00:09:44;33.65;31.52;37.58;;
67300;Laerm;57658;51.436;5.980;2023-06-26T00:09:54;33.35;31.97;36.49;;
67300;Laerm;57658;51.436;5.980;2023-06-26T00:10:05;33.72;31.74;36.97;;
67300;Laerm;57658;51.436;5.980;2023-06-26T00:10:15;33.70;31.88;35.32;;
67300;Laerm;57658;51.436;5.980;2023-06-26T00:10:26;32.72;31.43;33.87;;
67300;Laerm;57658;51.436;5.980;2023-06-26T00:10:37;33.44;31.60;35.18;;
67300;Laerm;57658;51.436;5.980;2023-06-26T00:10:47;33.33;31.54;35.43;;
67300;Laerm;57658;51.436;5.980;2023-06-26T00:11:00;33.19;31.52;34.69;;
67300;Laerm;57658;51.436;5.980;2023-06-26T00:11:10;33.73;32.00;36.31;;
67300;Laerm;57658;51.436;5.980;2023-06-26T00:11:21;33.96;32.17;35.84;;
67300;Laerm;57658;51.436;5.980;2023-06-26T00:11:31;33.92;32.39;37.69;;
67300;Laerm;57658;51.436;5.980;2023-06-26T00:11:43;33.74;32.08;35.23;;
67300;Laerm;57658;51.436;5.980;2023-06-26T00:11:53;33.47;32.13;34.67;;
67300;Laerm;57658;51.436;5.980;2023-06-26T00:12:03;35.21;33.39;39.04;;
67300;Laerm;57658;51.436;5.980;2023-06-26T00:12:14;34.79;33.03;37.15;;
67300;Laerm;57658;51.436;5.980;2023-06-26T00:12:24;34.19;32.61;36.82;;
67300;Laerm;57658;51.436;5.980;2023-06-26T00:12:35;34.44;32.82;36.94;;
67300;Laerm;57658;51.436;5.980;2023-06-26T00:12:45;34.16;32.65;40.61;;
67300;Laerm;57658;51.436;5.980;2023-06-26T00:12:55;34.22;31.65;36.52;;
67300;Laerm;57658;51.436;5.980;2023-06-26T00:13:06;33.67;32.04;35.81;;
67300;Laerm;57658;51.436;5.980;2023-06-26T00:13:16;33.83;32.47;38.20;;
67300;Laerm;57658;51.436;5.980;2023-06-26T00:13:26;32.99;31.46;34.79;;
67300;Laerm;57658;51.436;5.980;2023-06-26T00:13:37;34.25;31.65;35.92;;
67300;Laerm;57658;51.436;5.980;2023-06-26T00:13:47;33.63;31.90;35.23;;
67300;Laerm;57658;51.436;5.980;2023-06-26T00:13:57;33.44;31.79;35.95;;
67300;Laerm;57658;51.436;5.980;2023-06-26T00:14:10;34.07;32.51;35.85;;
67300;Laerm;57658;51.436;5.980;2023-06-26T00:14:20;35.06;32.35;53.03;;
67300;Laerm;57658;51.436;5.980;2023-06-26T00:14:30;34.01;32.00;35.85;;
67300;Laerm;57658;51.436;5.980;2023-06-26T00:14:41;33.51;32.07;35.09;;
67300;Laerm;57658;51.436;5.980;2023-06-26T00:14:51;33.67;32.04;35.15;;
67300;Laerm;57658;51.436;5.980;2023-06-26T00:15:02;34.10;32.50;35.98;;
67300;Laerm;57658;51.436;5.980;2023-06-26T00:15:12;33.94;32.34;35.74;;
67300;Laerm;57658;51.436;5.980;2023-06-26T00:15:22;33.97;32.21;36.35;;
67300;Laerm;57658;51.436;5.980;2023-06-26T00:15:33;34.05;31.74;35.48;;
67300;Laerm;57658;51.436;5.980;2023-06-26T00:15:43;33.95;32.45;35.31;;
67300;Laerm;57658;51.436;5.980;2023-06-26T00:15:53;33.88;32.58;37.66;;
67300;Laerm;57658;51.436;5.980;2023-06-26T00:16:03;33.78;32.26;36.91;;
67300;Laerm;57658;51.436;5.980;2023-06-26T00:16:14;34.41;31.96;36.40;;
67300;Laerm;57658;51.436;5.980;2023-06-26T00:16:25;34.53;32.48;37.20;;
67300;Laerm;57658;51.436;5.980;2023-06-26T00:16:35;33.80;31.94;35.59;;
67300;Laerm;57658;51.436;5.980;2023-06-26T00:16:49;34.24;32.37;36.34;;
67300;Laerm;57658;51.436;5.980;2023-06-26T00:17:02;34.01;32.16;36.46;;
67300;Laerm;57658;51.436;5.980;2023-06-26T00:17:12;34.08;32.29;35.63;;
67300;Laerm;57658;51.436;5.980;2023-06-26T00:17:23;33.49;32.11;34.88;;
67300;Laerm;57658;51.436;5.980;2023-06-26T00:17:33;33.58;32.12;35.02;;
67300;Laerm;57658;51.436;5.980;2023-06-26T00:17:47;33.33;31.61;35.63;;
67300;Laerm;57658;51.436;5.980;2023-06-26T00:17:58;33.29;31.72;38.39;;
67300;Laerm;57658;51.436;5.980;2023-06-26T00:18:08;33.71;31.77;37.88;;
67300;Laerm;57658;51.436;5.980;2023-06-26T00:18:18;33.21;31.52;37.11;;
67300;Laerm;57658;51.436;5.980;2023-06-26T00:18:29;33.52;31.96;35.03;;
67300;Laerm;57658;51.436;5.980;2023-06-26T00:18:39;33.30;31.73;37.24;;
67300;Laerm;57658;51.436;5.980;2023-06-26T00:18:49;34.44;32.21;37.74;;
67300;Laerm;57658;51.436;5.980;2023-06-26T00:19:03;34.40;32.04;38.02;;
67300;Laerm;57658;51.436;5.980;2023-06-26T00:19:13;34.98;33.23;38.29;;
67300;Laerm;57658;51.436;5.980;2023-06-26T00:19:24;33.25;32.03;36.69;;
67300;Laerm;57658;51.436;5.980;2023-06-26T00:19:34;33.37;31.24;36.03;;
67300;Laerm;57658;51.436;5.980;2023-06-26T00:19:44;33.22;31.73;35.15;;
67300;Laerm;57658;51.436;5.980;2023-06-26T00:19:55;33.31;31.42;36.22;;
67300;Laerm;57658;51.436;5.980;2023-06-26T00:20:05;33.47;31.51;36.21;;
67300;Laerm;57658;51.436;5.980;2023-06-26T00:20:15;33.48;31.77;35.73;;
67300;Laerm;57658;51.436;5.980;2023-06-26T00:20:26;32.85;31.63;34.38;;
67300;Laerm;57658;51.436;5.980;2023-06-26T00:20:36;32.75;31.45;34.08;;
67300;Laerm;57658;51.436;5.980;2023-06-26T00:20:47;32.86;31.51;34.38;;
67300;Laerm;57658;51.436;5.980;2023-06-26T00:20:57;33.35;32.03;35.27;;
67300;Laerm;57658;51.436;5.980;2023-06-26T00:21:07;33.89;32.49;35.32;;
67300;Laerm;57658;51.436;5.980;2023-06-26T00:21:17;33.06;31.81;35.10;;
67300;Laerm;57658;51.436;5.980;2023-06-26T00:21:29;33.45;31.84;35.31;;
67300;Laerm;57658;51.436;5.980;2023-06-26T00:21:39;33.22;31.87;34.65;;
67300;Laerm;57658;51.436;5.980;2023-06-26T00:21:49;33.82;31.89;35.66;;
67300;Laerm;57658;51.436;5.980;2023-06-26T00:21:59;33.40;31.98;35.11;;
67300;Laerm;57658;51.436;5.980;2023-06-26T00:22:10;33.58;32.33;35.31;;
67300;Laerm;57658;51.436;5.980;2023-06-26T00:22:21;33.88;31.96;35.88;;
67300;Laerm;57658;51.436;5.980;2023-06-26T00:22:31;34.21;32.27;36.26;;
67300;Laerm;57658;51.436;5.980;2023-06-26T00:22:41;33.63;32.10;35.78;;
67300;Laerm;57658;51.436;5.980;2023-06-26T00:22:52;33.32;31.84;34.76;;
67300;Laerm;57658;51.436;5.980;2023-06-26T00:23:03;33.06;31.46;34.48;;
67300;Laerm;57658;51.436;5.980;2023-06-26T00:23:18;33.54;31.84;35.19;;
67300;Laerm;57658;51.436;5.980;2023-06-26T00:23:28;33.70;32.14;35.17;;
67300;Laerm;57658;51.436;5.980;2023-06-26T00:23:40;34.67;32.68;40.03;;
67300;Laerm;57658;51.436;5.980;2023-06-26T00:23:51;35.98;32.86;44.30;;
67300;Laerm;57658;51.436;5.980;2023-06-26T00:24:01;33.85;31.87;39.52;;
67300;Laerm;57658;51.436;5.980;2023-06-26T00:24:12;33.51;31.92;35.36;;
67300;Laerm;57658;51.436;5.980;2023-06-26T00:24:23;34.02;31.87;36.30;;
67300;Laerm;57658;51.436;5.980;2023-06-26T00:24:33;34.02;31.76;36.51;;
67300;Laerm;57658;51.436;5.980;2023-06-26T00:24:43;33.33;31.78;34.98;;
67300;Laerm;57658;51.436;5.980;2023-06-26T00:24:55;33.54;31.56;35.78;;
67300;Laerm;57658;51.436;5.980;2023-06-26T00:25:05;33.53;31.79;35.67;;
67300;Laerm;57658;51.436;5.980;2023-06-26T00:25:15;32.97;31.46;34.35;;
67300;Laerm;57658;51.436;5.980;2023-06-26T00:25:25;34.12;32.55;35.84;;
67300;Laerm;57658;51.436;5.980;2023-06-26T00:25:36;34.06;32.24;35.89;;
67300;Laerm;57658;51.436;5.980;2023-06-26T00:25:46;35.74;32.81;41.58;;
67300;Laerm;57658;51.436;5.980;2023-06-26T00:25:56;46.42;36.81;55.00;;
67300;Laerm;57658;51.436;5.980;2023-06-26T00:26:07;58.49;52.63;66.29;;
67300;Laerm;57658;51.436;5.980;2023-06-26T00:26:17;68.20;50.24;75.78;;
67300;Laerm;57658;51.436;5.980;2023-06-26T00:26:27;48.20;41.70;53.28;;
67300;Laerm;57658;51.436;5.980;2023-06-26T00:26:38;44.76;41.61;47.37;;
67300;Laerm;57658;51.436;5.980;2023-06-26T00:26:48;41.89;33.57;46.43;;
67300;Laerm;57658;51.436;5.980;2023-06-26T00:26:58;34.83;32.84;37.37;;
67300;Laerm;57658;51.436;5.980;2023-06-26T00:27:09;35.89;33.57;37.86;;
67300;Laerm;57658;51.436;5.980;2023-06-26T00:27:19;34.39;32.25;37.47;;
67300;Laerm;57658;51.436;5.980;2023-06-26T00:27:29;32.85;31.40;34.24;;
67300;Laerm;57658;51.436;5.980;2023-06-26T00:27:39;32.81;31.47;33.99;;
67300;Laerm;57658;51.436;5.980;2023-06-26T00:27:50;33.16;31.56;35.06;;
67300;Laerm;57658;51.436;5.980;2023-06-26T00:28:00;33.32;31.93;34.71;;
67300;Laerm;57658;51.436;5.980;2023-06-26T00:28:11;33.64;31.70;35.53;;
67300;Laerm;57658;51.436;5.980;2023-06-26T00:28:21;33.09;31.71;35.30;;
67300;Laerm;57658;51.436;5.980;2023-06-26T00:28:32;32.92;31.33;33.98;;
67300;Laerm;57658;51.436;5.980;2023-06-26T00:28:42;33.35;31.99;35.14;;
67300;Laerm;57658;51.436;5.980;2023-06-26T00:28:52;33.12;31.18;35.48;;
67300;Laerm;57658;51.436;5.980;2023-06-26T00:29:02;33.48;31.98;35.64;;
67300;Laerm;57658;51.436;5.980;2023-06-26T00:29:13;33.16;31.38;35.31;;
67300;Laerm;57658;51.436;5.980;2023-06-26T00:29:23;33.35;32.07;35.45;;
67300;Laerm;57658;51.436;5.980;2023-06-26T00:29:33;33.38;31.79;34.95;;
67300;Laerm;57658;51.436;5.980;2023-06-26T00:29:44;33.63;31.75;35.26;;
67300;Laerm;57658;51.436;5.980;2023-06-26T00:29:54;33.49;31.62;35.22;;
67300;Laerm;57658;51.436;5.980;2023-06-26T00:30:04;33.87;31.92;35.51;;
67300;Laerm;57658;51.436;5.980;2023-06-26T00:30:15;33.82;31.76;36.25;;
67300;Laerm;57658;51.436;5.980;2023-06-26T00:30:25;34.07;31.63;37.12;;
67300;Laerm;57658;51.436;5.980;2023-06-26T00:30:35;32.88;31.23;34.91;;
67300;Laerm;57658;51.436;5.980;2023-06-26T00:30:46;32.93;31.45;34.22;;
67300;Laerm;57658;51.436;5.980;2023-06-26T00:30:56;32.38;31.29;33.89;;
67300;Laerm;57658;51.436;5.980;2023-06-26T00:31:06;49.60;31.21;66.05;;
67300;Laerm;57658;51.436;5.980;2023-06-26T00:31:16;33.86;31.85;35.91;;
67300;Laerm;57658;51.436;5.980;2023-06-26T00:31:27;33.22;30.92;45.17;;
67300;Laerm;57658;51.436;5.980;2023-06-26T00:31:37;33.06;31.56;34.83;;
67300;Laerm;57658;51.436;5.980;2023-06-26T00:31:48;33.82;32.16;35.34;;
67300;Laerm;57658;51.436;5.980;2023-06-26T00:31:58;34.37;32.51;38.86;;
67300;Laerm;57658;51.436;5.980;2023-06-26T00:32:08;33.86;32.26;35.21;;
67300;Laerm;57658;51.436;5.980;2023-06-26T00:32:19;34.06;31.93;36.10;;
67300;Laerm;57658;51.436;5.980;2023-06-26T00:32:29;33.87;31.75;35.92;;
67300;Laerm;57658;51.436;5.980;2023-06-26T00:32:39;33.33;31.66;35.07;;
67300;Laerm;57658;51.436;5.980;2023-06-26T00:32:50;33.57;31.59;35.65;;
67300;Laerm;57658;51.436;5.980;2023-06-26T00:33:01;34.00;32.04;35.81;;
67300;Laerm;57658;51.436;5.980;2023-06-26T00:33:11;33.16;31.50;35.00;;
67300;Laerm;57658;51.436;5.980;2023-06-26T00:33:21;33.18;31.62;34.54;;
67300;Laerm;57658;51.436;5.980;2023-06-26T00:33:32;33.33;31.52;35.15;;
67300;Laerm;57658;51.436;5.980;2023-06-26T00:33:42;34.49;31.69;36.53;;
67300;Laerm;57658;51.436;5.980;2023-06-26T00:33:52;33.98;31.62;36.02;;
67300;Laerm;57658;51.436;5.980;2023-06-26T00:34:03;33.00;31.12;34.81;;
67300;Laerm;57658;51.436;5.980;2023-06-26T00:34:13;33.39;30.95;36.71;;
67300;Laerm;57658;51.436;5.980;2023-06-26T00:34:24;32.97;30.61;35.44;;
67300;Laerm;57658;51.436;5.980;2023-06-26T00:34:35;32.44;30.86;33.77;;
67300;Laerm;57658;51.436;5.980;2023-06-26T00:34:45;32.52;31.20;34.06;;
67300;Laerm;57658;51.436;5.980;2023-06-26T00:34:56;32.92;31.15;41.62;;
67300;Laerm;57658;51.436;5.980;2023-06-26T00:35:07;33.84;31.30;44.02;;
67300;Laerm;57658;51.436;5.980;2023-06-26T00:35:17;34.27;31.08;48.46;;
67300;Laerm;57658;51.436;5.980;2023-06-26T00:35:27;33.09;31.48;34.88;;
67300;Laerm;57658;51.436;5.980;2023-06-26T00:35:38;32.86;31.39;34.16;;
67300;Laerm;57658;51.436;5.980;2023-06-26T00:35:48;32.38;31.05;34.94;;
67300;Laerm;57658;51.436;5.980;2023-06-26T00:35:58;33.58;31.59;35.51;;
67300;Laerm;57658;51.436;5.980;2023-06-26T00:36:09;33.93;32.02;38.62;;
67300;Laerm;57658;51.436;5.980;2023-06-26T00:36:19;33.17;31.25;35.99;;
67300;Laerm;57658;51.436;5.980;2023-06-26T00:36:29;32.45;31.17;35.25;;
67300;Laerm;57658;51.436;5.980;2023-06-26T00:36:40;32.63;31.16;35.80;;
67300;Laerm;57658;51.436;5.980;2023-06-26T00:36:53;33.04;31.00;36.44;;
67300;Laerm;57658;51.436;5.980;2023-06-26T00:37:03;33.02;31.64;35.78;;
67300;Laerm;57658;51.436;5.980;2023-06-26T00:37:14;32.45;31.13;34.18;;
67300;Laerm;57658;51.436;5.980;2023-06-26T00:37:24;32.98;31.15;35.31;;
67300;Laerm;57658;51.436;5.980;2023-06-26T00:37:34;32.61;31.07;33.94;;
67300;Laerm;57658;51.436;5.980;2023-06-26T00:37:45;33.31;31.26;35.30;;
67300;Laerm;57658;51.436;5.980;2023-06-26T00:37:55;33.35;31.54;35.38;;
67300;Laerm;57658;51.436;5.980;2023-06-26T00:38:05;33.15;31.31;34.85;;
67300;Laerm;57658;51.436;5.980;2023-06-26T00:38:16;34.37;32.31;37.19;;
67300;Laerm;57658;51.436;5.980;2023-06-26T00:38:27;32.80;31.01;34.57;;
67300;Laerm;57658;51.436;5.980;2023-06-26T00:38:37;32.81;31.05;35.15;;
67300;Laerm;57658;51.436;5.980;2023-06-26T00:38:48;33.36;31.34;35.09;;
67300;Laerm;57658;51.436;5.980;2023-06-26T00:38:59;33.24;31.74;36.27;;
67300;Laerm;57658;51.436;5.980;2023-06-26T00:39:09;32.61;31.12;34.59;;
67300;Laerm;57658;51.436;5.980;2023-06-26T00:39:20;32.34;30.99;34.23;;
67300;Laerm;57658;51.436;5.980;2023-06-26T00:39:30;32.34;30.65;33.74;;
67300;Laerm;57658;51.436;5.980;2023-06-26T00:39:40;33.04;31.08;34.90;;
67300;Laerm;57658;51.436;5.980;2023-06-26T00:39:51;32.97;31.24;34.76;;
67300;Laerm;57658;51.436;5.980;2023-06-26T00:40:01;33.27;31.34;34.76;;
67300;Laerm;57658;51.436;5.980;2023-06-26T00:40:12;32.47;31.21;34.88;;
67300;Laerm;57658;51.436;5.980;2023-06-26T00:40:23;32.85;31.35;34.23;;
67300;Laerm;57658;51.436;5.980;2023-06-26T00:40:33;32.65;31.07;34.02;;
67300;Laerm;57658;51.436;5.980;2023-06-26T00:40:43;32.70;31.33;33.99;;
67300;Laerm;57658;51.436;5.980;2023-06-26T00:40:54;32.62;30.97;34.15;;
67300;Laerm;57658;51.436;5.980;2023-06-26T00:41:04;36.72;31.25;52.14;;
67300;Laerm;57658;51.436;5.980;2023-06-26T00:41:15;36.67;30.44;50.36;;
67300;Laerm;57658;51.436;5.980;2023-06-26T00:41:25;31.73;30.28;33.41;;
67300;Laerm;57658;51.436;5.980;2023-06-26T00:41:36;32.72;30.89;34.72;;
67300;Laerm;57658;51.436;5.980;2023-06-26T00:41:46;33.41;30.84;46.53;;
67300;Laerm;57658;51.436;5.980;2023-06-26T00:41:57;32.02;30.56;36.39;;
67300;Laerm;57658;51.436;5.980;2023-06-26T00:42:08;31.96;30.59;33.30;;
67300;Laerm;57658;51.436;5.980;2023-06-26T00:42:18;31.69;30.53;33.88;;
67300;Laerm;57658;51.436;5.980;2023-06-26T00:42:28;31.93;30.65;33.38;;
67300;Laerm;57658;51.436;5.980;2023-06-26T00:42:38;32.67;30.83;38.21;;
67300;Laerm;57658;51.436;5.980;2023-06-26T00:42:49;32.06;30.98;33.39;;
67300;Laerm;57658;51.436;5.980;2023-06-26T00:42:59;33.34;30.91;40.98;;
67300;Laerm;57658;51.436;5.980;2023-06-26T00:43:10;32.65;30.33;36.85;;
67300;Laerm;57658;51.436;5.980;2023-06-26T00:43:20;32.77;30.81;38.71;;
67300;Laerm;57658;51.436;5.980;2023-06-26T00:43:30;32.80;30.94;38.12;;
67300;Laerm;57658;51.436;5.980;2023-06-26T00:43:41;32.42;30.75;33.91;;
67300;Laerm;57658;51.436;5.980;2023-06-26T00:43:51;33.09;31.15;39.79;;
67300;Laerm;57658;51.436;5.980;2023-06-26T00:44:01;32.25;30.83;33.38;;
67300;Laerm;57658;51.436;5.980;2023-06-26T00:44:12;32.74;30.77;37.49;;
67300;Laerm;57658;51.436;5.980;2023-06-26T00:44:22;31.99;30.75;33.55;;
67300;Laerm;57658;51.436;5.980;2023-06-26T00:44:32;32.81;30.45;40.50;;
67300;Laerm;57658;51.436;5.980;2023-06-26T00:44:43;32.29;30.83;34.02;;
67300;Laerm;57658;51.436;5.980;2023-06-26T00:44:53;32.52;30.93;34.55;;
67300;Laerm;57658;51.436;5.980;2023-06-26T00:45:04;36.48;31.11;52.99;;
67300;Laerm;57658;51.436;5.980;2023-06-26T00:45:14;39.95;31.00;54.59;;
67300;Laerm;57658;51.436;5.980;2023-06-26T00:45:24;35.61;31.14;49.44;;
67300;Laerm;57658;51.436;5.980;2023-06-26T00:45:34;36.99;31.37;47.21;;
67300;Laerm;57658;51.436;5.980;2023-06-26T00:45:45;38.96;31.79;50.00;;
67300;Laerm;57658;51.436;5.980;2023-06-26T00:45:55;38.32;32.18;48.53;;
67300;Laerm;57658;51.436;5.980;2023-06-26T00:46:06;36.65;32.84;44.65;;
67300;Laerm;57658;51.436;5.980;2023-06-26T00:46:18;36.00;32.84;39.97;;
67300;Laerm;57658;51.436;5.980;2023-06-26T00:46:28;35.72;32.90;43.17;;
67300;Laerm;57658;51.436;5.980;2023-06-26T00:46:39;36.04;33.60;38.81;;
67300;Laerm;57658;51.436;5.980;2023-06-26T00:46:49;35.20;32.29;38.68;;
67300;Laerm;57658;51.436;5.980;2023-06-26T00:47:00;34.78;32.49;38.53;;
67300;Laerm;57658;51.436;5.980;2023-06-26T00:47:11;34.60;32.41;41.59;;
67300;Laerm;57658;51.436;5.980;2023-06-26T00:47:24;35.57;32.01;44.18;;
67300;Laerm;57658;51.436;5.980;2023-06-26T00:47:35;36.16;31.94;49.16;;
67300;Laerm;57658;51.436;5.980;2023-06-26T00:47:46;33.67;32.08;35.65;;
67300;Laerm;57658;51.436;5.980;2023-06-26T00:47:56;33.37;31.80;35.45;;
67300;Laerm;57658;51.436;5.980;2023-06-26T00:48:07;33.80;32.19;35.57;;
67300;Laerm;57658;51.436;5.980;2023-06-26T00:48:18;33.69;32.08;35.90;;
67300;Laerm;57658;51.436;5.980;2023-06-26T00:48:29;33.26;31.88;35.23;;
67300;Laerm;57658;51.436;5.980;2023-06-26T00:48:41;33.27;31.93;37.07;;
67300;Laerm;57658;51.436;5.980;2023-06-26T00:48:51;33.65;32.26;36.55;;
67300;Laerm;57658;51.436;5.980;2023-06-26T00:49:03;32.73;30.82;35.51;;
67300;Laerm;57658;51.436;5.980;2023-06-26T00:49:13;32.29;30.79;33.76;;
67300;Laerm;57658;51.436;5.980;2023-06-26T00:49:24;33.35;31.09;35.17;;
67300;Laerm;57658;51.436;5.980;2023-06-26T00:49:34;33.14;31.35;34.65;;
67300;Laerm;57658;51.436;5.980;2023-06-26T00:49:45;33.04;31.66;34.72;;
67300;Laerm;57658;51.436;5.980;2023-06-26T00:49:55;33.34;31.52;36.83;;
67300;Laerm;57658;51.436;5.980;2023-06-26T00:50:05;34.64;32.32;36.51;;
67300;Laerm;57658;51.436;5.980;2023-06-26T00:50:16;34.09;32.10;36.21;;
67300;Laerm;57658;51.436;5.980;2023-06-26T00:50:27;34.09;32.16;35.67;;
67300;Laerm;57658;51.436;5.980;2023-06-26T00:50:38;34.24;31.71;44.34;;
67300;Laerm;57658;51.436;5.980;2023-06-26T00:50:48;33.11;31.76;35.06;;
67300;Laerm;57658;51.436;5.980;2023-06-26T00:50:58;33.46;32.16;34.70;;
67300;Laerm;57658;51.436;5.980;2023-06-26T00:51:09;33.03;31.74;34.57;;
67300;Laerm;57658;51.436;5.980;2023-06-26T00:51:19;33.41;31.72;34.92;;
67300;Laerm;57658;51.436;5.980;2023-06-26T00:51:30;33.19;31.67;34.78;;
67300;Laerm;57658;51.436;5.980;2023-06-26T00:51:40;33.67;32.04;35.39;;
67300;Laerm;57658;51.436;5.980;2023-06-26T00:51:51;33.23;31.61;34.47;;
67300;Laerm;57658;51.436;5.980;2023-06-26T00:52:01;32.71;31.49;33.81;;
67300;Laerm;57658;51.436;5.980;2023-06-26T00:52:13;32.47;31.20;33.79;;
67300;Laerm;57658;51.436;5.980;2023-06-26T00:52:23;33.12;31.79;34.37;;
67300;Laerm;57658;51.436;5.980;2023-06-26T00:52:34;33.43;31.77;35.16;;
67300;Laerm;57658;51.436;5.980;2023-06-26T00:52:44;32.82;31.27;34.00;;
67300;Laerm;57658;51.436;5.980;2023-06-26T00:52:54;32.77;30.99;35.57;;
67300;Laerm;57658;51.436;5.980;2023-06-26T00:53:10;33.07;31.15;35.15;;
67300;Laerm;57658;51.436;5.980;2023-06-26T00:53:21;32.74;31.30;34.83;;
67300;Laerm;57658;51.436;5.980;2023-06-26T00:53:32;34.93;32.30;37.99;;
67300;Laerm;57658;51.436;5.980;2023-06-26T00:53:42;42.57;33.16;51.82;;
67300;Laerm;57658;51.436;5.980;2023-06-26T00:53:53;40.63;32.20;52.48;;
67300;Laerm;57658;51.436;5.980;2023-06-26T00:54:04;33.32;31.78;35.18;;
67300;Laerm;57658;51.436;5.980;2023-06-26T00:54:14;32.83;30.96;35.04;;
67300;Laerm;57658;51.436;5.980;2023-06-26T00:54:30;33.53;31.23;35.89;;
67300;Laerm;57658;51.436;5.980;2023-06-26T00:54:41;33.29;31.39;35.74;;
67300;Laerm;57658;51.436;5.980;2023-06-26T00:54:51;32.69;30.82;34.24;;
67300;Laerm;57658;51.436;5.980;2023-06-26T00:55:02;32.85;31.30;34.46;;
67300;Laerm;57658;51.436;5.980;2023-06-26T00:55:13;33.11;31.58;34.56;;
67300;Laerm;57658;51.436;5.980;2023-06-26T00:55:24;34.03;32.50;35.60;;
67300;Laerm;57658;51.436;5.980;2023-06-26T00:55:34;33.33;31.43;35.95;;
67300;Laerm;57658;51.436;5.980;2023-06-26T00:55:44;33.20;31.82;34.60;;
67300;Laerm;57658;51.436;5.980;2023-06-26T00:55:55;33.18;31.37;39.59;;
67300;Laerm;57658;51.436;5.980;2023-06-26T00:56:06;34.12;32.24;36.70;;
67300;Laerm;57658;51.436;5.980;2023-06-26T00:56:17;33.40;31.97;37.30;;
67300;Laerm;57658;51.436;5.980;2023-06-26T00:56:27;33.15;31.48;34.76;;
67300;Laerm;57658;51.436;5.980;2023-06-26T00:56:38;32.91;31.49;34.40;;
67300;Laerm;57658;51.436;5.980;2023-06-26T00:56:49;32.86;31.30;34.66;;
67300;Laerm;57658;51.436;5.980;2023-06-26T00:56:59;34.41;31.61;37.13;;
67300;Laerm;57658;51.436;5.980;2023-06-26T00:57:09;33.10;31.59;34.75;;
67300;Laerm;57658;51.436;5.980;2023-06-26T00:57:20;33.11;31.13;34.67;;
67300;Laerm;57658;51.436;5.980;2023-06-26T00:57:30;33.96;32.15;40.75;;
67300;Laerm;57658;51.436;5.980;2023-06-26T00:57:41;33.90;31.22;35.96;;
67300;Laerm;57658;51.436;5.980;2023-06-26T00:57:53;32.84;31.12;34.61;;
67300;Laerm;57658;51.436;5.980;2023-06-26T00:58:04;33.65;32.05;35.54;;
67300;Laerm;57658;51.436;5.980;2023-06-26T00:58:15;33.45;31.87;34.87;;
67300;Laerm;57658;51.436;5.980;2023-06-26T00:58:25;33.54;31.92;36.03;;
67300;Laerm;57658;51.436;5.980;2023-06-26T00:58:35;33.13;31.66;35.03;;
67300;Laerm;57658;51.436;5.980;2023-06-26T00:58:45;33.21;31.84;34.86;;
67300;Laerm;57658;51.436;5.980;2023-06-26T00:58:56;33.75;31.95;36.51;;
67300;Laerm;57658;51.436;5.980;2023-06-26T00:59:06;33.01;31.33;35.18;;
67300;Laerm;57658;51.436;5.980;2023-06-26T00:59:17;33.27;31.32;35.46;;
67300;Laerm;57658;51.436;5.980;2023-06-26T00:59:27;33.67;32.10;35.16;;